createdAt,value
2022-07-28T00:07:53.855Z,12.10
2022-07-28T00:19:53.505Z,12.09
2022-07-28T00:31:53.518Z,12.06
2022-07-28T00:43:53.547Z,12.06
2022-07-28T00:56:05.939Z,12.05
2022-07-28T01:07:53.710Z,12.03
2022-07-28T01:19:54.022Z,12.02
2022-07-28T01:31:54.091Z,12.00
2022-07-28T01:43:53.871Z,12.00
2022-07-28T01:55:53.707Z,11.98
2022-07-28T02:07:53.491Z,11.96
2022-07-28T02:19:53.496Z,11.95
2022-07-28T02:31:53.622Z,11.94
2022-07-28T02:43:53.802Z,11.93
2022-07-28T02:55:53.816Z,11.92
2022-07-28T03:07:53.748Z,11.90
2022-07-28T03:19:53.461Z,11.89
2022-07-28T03:31:54.181Z,11.88
2022-07-28T03:43:53.787Z,11.86
2022-07-28T03:55:54.186Z,11.86
2022-07-28T04:07:53.806Z,11.83
2022-07-28T04:19:53.907Z,11.83
2022-07-28T04:31:53.864Z,11.82
2022-07-28T04:43:53.713Z,11.81
2022-07-28T04:55:54.832Z,11.81
2022-07-28T05:07:53.986Z,11.80
2022-07-28T05:19:53.927Z,11.80
2022-07-28T05:31:53.977Z,11.80
2022-07-28T05:43:53.741Z,11.81
2022-07-28T05:55:59.842Z,11.82
2022-07-28T06:07:53.885Z,11.82
2022-07-28T06:19:53.810Z,11.87
2022-07-28T06:31:53.954Z,11.92
2022-07-28T06:43:53.773Z,11.96
2022-07-28T06:55:54.013Z,12.02
2022-07-28T07:07:54.602Z,12.10
2022-07-28T07:19:54.069Z,12.17
2022-07-28T07:31:54.495Z,12.30
2022-07-28T07:43:54.068Z,12.40
2022-07-28T07:55:53.511Z,12.50
2022-07-28T08:07:53.855Z,12.68
2022-07-28T08:19:54.082Z,12.64
2022-07-28T08:31:54.107Z,12.65
2022-07-28T08:43:53.802Z,12.66
2022-07-28T08:55:54.569Z,12.66
2022-07-28T09:07:54.905Z,12.66
2022-07-28T09:19:54.033Z,12.66
2022-07-28T09:31:55.800Z,12.66
2022-07-28T09:43:55.177Z,12.66
2022-07-28T09:55:53.754Z,12.66
2022-07-28T10:07:53.727Z,12.66
2022-07-28T10:19:53.672Z,12.66
2022-07-28T10:31:54.120Z,12.65
2022-07-28T10:43:53.734Z,12.65
2022-07-28T10:55:53.633Z,12.65
2022-07-28T11:07:53.798Z,12.65
2022-07-28T11:31:53.502Z,12.65
2022-07-28T11:43:53.845Z,12.65
2022-07-28T11:56:02.976Z,12.65
2022-07-28T12:07:53.743Z,12.64
2022-07-28T12:19:53.848Z,12.65
2022-07-28T12:31:53.858Z,12.66
2022-07-28T12:43:53.668Z,12.66
2022-07-28T12:55:53.678Z,12.67
2022-07-28T13:07:53.779Z,12.66
2022-07-28T13:19:53.512Z,12.67
2022-07-28T13:31:53.612Z,12.67
2022-07-28T13:43:53.726Z,12.67
2022-07-28T13:55:53.587Z,12.67
2022-07-28T14:07:53.725Z,12.68
2022-07-28T14:19:53.691Z,12.67
2022-07-28T14:31:53.597Z,12.67
2022-07-28T14:43:53.469Z,12.67
2022-07-28T14:55:53.935Z,12.67
2022-07-28T15:07:53.680Z,12.67
2022-07-28T15:19:53.770Z,12.65
2022-07-28T15:31:53.746Z,12.64
2022-07-28T15:43:53.704Z,12.62
2022-07-28T15:55:53.615Z,12.61
2022-07-28T16:07:53.577Z,12.59
2022-07-28T16:19:53.836Z,12.60
2022-07-28T16:31:53.504Z,12.60
2022-07-28T16:43:53.589Z,12.60
2022-07-28T16:55:53.481Z,12.60
2022-07-28T17:07:53.473Z,12.59
2022-07-28T17:19:53.553Z,12.59
2022-07-28T17:31:53.926Z,12.58
2022-07-28T17:43:53.769Z,12.58
2022-07-28T17:56:00.508Z,12.57
2022-07-28T18:07:57.406Z,12.55
2022-07-28T18:19:53.520Z,12.54
2022-07-28T18:31:53.672Z,12.51
2022-07-28T18:43:53.463Z,12.50
2022-07-28T18:55:53.507Z,12.48
2022-07-28T19:07:53.495Z,12.47
2022-07-28T19:19:53.688Z,12.45
2022-07-28T19:31:53.822Z,12.43
2022-07-28T19:43:53.529Z,12.41
2022-07-28T19:55:53.702Z,12.40
2022-07-28T20:07:53.427Z,12.38
2022-07-28T20:19:53.481Z,12.37
2022-07-28T20:31:54.088Z,12.35
2022-07-28T20:44:18.219Z,12.34
2022-07-28T20:55:53.453Z,12.32
2022-07-28T21:08:00.642Z,12.29
2022-07-28T21:19:53.580Z,12.30
2022-07-28T21:32:02.341Z,12.26
2022-07-28T21:43:53.444Z,12.26
2022-07-28T21:55:53.638Z,12.25
2022-07-28T22:07:53.585Z,12.23
2022-07-28T22:19:53.562Z,12.22
2022-07-28T22:31:58.871Z,12.20
2022-07-28T22:43:53.537Z,12.19
2022-07-28T22:55:53.519Z,12.18
2022-07-28T23:07:57.234Z,12.16
2022-07-28T23:19:53.516Z,12.15
2022-07-28T23:31:53.566Z,12.14
2022-07-28T23:43:53.902Z,12.12
2022-07-28T23:55:53.473Z,12.11
